Terminal Aerodrome Forecast
Issued by NWS Charleston, WV

Current Version | Previous Version | Graphics & Text | Print | Product List | Glossary On
Versions: 1 2 3 4 5 6 7 8 9 10 11 12 13 14 15 16 17 18 19 20 21 22 23 24
947
FTUS41 KRLX 252345
TAFBKW
TAF
KBKW 252345Z 2600/2624 28011G20KT P6SM SCT050
     FM260100 30011G22KT P6SM BKN045
     FM260900 29010G17KT P6SM SCT040
     FM262000 25006KT P6SM FEW250=

USA.gov is the U.S. government's official web portal to all federal, state and local government web resources and services.